createdAt,value
2023-05-10T00:00:18.794Z,1.040
2023-05-10T00:01:18.186Z,1.480
2023-05-10T00:02:18.393Z,2.480
2023-05-10T00:04:18.348Z,3.360
2023-05-10T00:05:17.764Z,0.680
2023-05-10T00:06:18.127Z,0.760
2023-05-10T00:07:18.315Z,2.360
2023-05-10T00:08:18.493Z,1.141
2023-05-10T00:10:18.273Z,3.560
2023-05-10T00:11:17.618Z,1.040
2023-05-10T00:12:17.716Z,1.840
2023-05-10T00:13:18.054Z,2.920
2023-05-10T00:14:18.433Z,3.187
2023-05-10T00:15:17.653Z,2.441
2023-05-10T00:16:17.928Z,1.280
2023-05-10T00:17:18.269Z,1.880
2023-05-10T00:20:18.701Z,1.040
2023-05-10T00:21:18.021Z,0.600
2023-05-10T00:22:18.378Z,2.040
2023-05-10T00:25:18.239Z,2.360
2023-05-10T00:26:18.472Z,3.069
2023-05-10T00:27:17.694Z,1.831
2023-05-10T00:28:17.978Z,0.960
2023-05-10T00:29:18.119Z,2.200
2023-05-10T00:30:19.049Z,1.360
2023-05-10T00:32:17.652Z,3.320
2023-05-10T00:33:18.278Z,4.080
2023-05-10T00:34:18.541Z,4.249
2023-05-10T00:35:17.809Z,4.149
2023-05-10T00:36:18.037Z,5.120
2023-05-10T00:37:18.238Z,5.120
2023-05-10T00:38:18.395Z,4.080
2023-05-10T00:39:17.672Z,3.640
2023-05-10T00:40:18.063Z,2.640
2023-05-10T00:41:18.552Z,2.557
2023-05-10T00:42:17.781Z,2.929
2023-05-10T00:43:17.956Z,3.680
2023-05-10T00:44:18.191Z,2.640
2023-05-10T00:45:18.422Z,3.360
2023-05-10T00:46:17.625Z,3.640
2023-05-10T00:47:18.199Z,2.120
2023-05-10T00:48:17.771Z,2.800
2023-05-10T00:49:18.007Z,3.480
2023-05-10T00:50:19.012Z,4.720
2023-05-10T00:52:17.776Z,2.400
2023-05-10T00:53:18.044Z,4.840
2023-05-10T00:54:18.270Z,5.480
2023-05-10T00:55:18.429Z,4.407
2023-05-10T00:56:17.651Z,2.766
2023-05-10T00:57:17.813Z,4.080
2023-05-10T00:58:17.990Z,3.880
2023-05-10T00:59:18.193Z,4.160
2023-05-10T01:00:18.731Z,4.525
2023-05-10T01:01:18.004Z,2.766
2023-05-10T01:03:18.707Z,4.289
2023-05-10T01:04:18.294Z,2.969
2023-05-10T01:07:18.500Z,1.652
2023-05-10T01:08:17.741Z,1.505
2023-05-10T01:09:17.977Z,1.960
2023-05-10T01:10:18.750Z,1.040
2023-05-10T01:11:18.037Z,2.920
2023-05-10T01:12:18.346Z,1.360
2023-05-10T01:13:17.813Z,2.280
2023-05-10T01:14:18.425Z,3.240
2023-05-10T01:17:17.689Z,2.680
2023-05-10T01:18:18.159Z,1.960
2023-05-10T01:19:18.330Z,2.520
2023-05-10T01:20:19.047Z,2.085
2023-05-10T01:21:18.475Z,2.320
2023-05-10T01:22:17.647Z,1.993
2023-05-10T01:23:17.768Z,1.400
2023-05-10T01:24:18.086Z,4.000
2023-05-10T01:25:18.381Z,3.800
2023-05-10T01:26:17.846Z,4.560
2023-05-10T01:27:18.022Z,3.920
2023-05-10T01:28:18.264Z,2.880
2023-05-10T01:29:18.499Z,3.148
2023-05-10T01:30:17.754Z,3.336
2023-05-10T01:31:18.173Z,3.560
2023-05-10T01:32:17.775Z,3.760
2023-05-10T01:33:18.024Z,1.280
2023-05-10T01:34:18.252Z,1.640
2023-05-10T01:35:18.434Z,1.600
2023-05-10T01:36:17.801Z,2.160
2023-05-10T01:37:18.058Z,2.160
2023-05-10T01:38:18.394Z,1.760
2023-05-10T01:39:17.593Z,3.280
2023-05-10T01:40:18.215Z,2.000
2023-05-10T01:41:18.434Z,1.800
2023-05-10T01:42:17.704Z,1.720
2023-05-10T01:43:18.049Z,2.560
2023-05-10T01:44:18.268Z,3.840
2023-05-10T01:45:18.593Z,2.793
2023-05-10T01:46:17.790Z,5.247
2023-05-10T01:47:18.184Z,2.560
2023-05-10T01:48:18.597Z,3.108
2023-05-10T01:49:17.849Z,2.563
2023-05-10T01:50:18.978Z,4.920
2023-05-10T01:52:17.602Z,2.440
2023-05-10T01:53:17.818Z,1.560
2023-05-10T01:54:18.055Z,1.280
2023-05-10T01:55:18.655Z,2.840
2023-05-10T01:56:17.929Z,2.760
2023-05-10T01:57:18.429Z,3.520
2023-05-10T01:58:17.593Z,2.280
2023-05-10T01:59:17.799Z,1.320
2023-05-10T02:00:18.229Z,2.760
2023-05-10T02:02:18.207Z,2.600
2023-05-10T02:03:17.680Z,1.600
2023-05-10T02:04:18.286Z,1.200
2023-05-10T02:05:18.578Z,1.259
2023-05-10T02:06:17.825Z,2.807
2023-05-10T02:07:18.183Z,2.040
2023-05-10T02:08:18.491Z,1.338
2023-05-10T02:09:17.746Z,0.407
2023-05-10T02:10:18.592Z,0.400
2023-05-10T02:11:17.937Z,1.000
2023-05-10T02:12:18.147Z,2.320
2023-05-10T02:13:18.432Z,1.160
2023-05-10T02:14:18.266Z,1.920
2023-05-10T02:15:18.563Z,1.338
2023-05-10T02:16:17.850Z,1.790
2023-05-10T02:17:18.410Z,1.520
2023-05-10T02:20:18.857Z,1.400
2023-05-10T02:21:18.492Z,0.960
2023-05-10T02:23:18.121Z,1.880
2023-05-10T02:24:18.633Z,3.360
2023-05-10T02:25:17.796Z,3.160
2023-05-10T02:26:17.966Z,2.080
2023-05-10T02:27:18.161Z,2.520
2023-05-10T02:28:18.494Z,2.754
2023-05-10T02:29:17.782Z,1.668
2023-05-10T02:30:18.359Z,1.800
2023-05-10T02:33:17.746Z,3.840
2023-05-10T02:34:18.171Z,3.920
2023-05-10T02:35:18.380Z,2.160
2023-05-10T02:38:18.060Z,3.400
2023-05-10T02:39:18.420Z,2.720
2023-05-10T02:40:17.918Z,1.880
2023-05-10T02:41:18.512Z,0.826
2023-05-10T02:42:17.835Z,1.871
2023-05-10T02:43:18.029Z,1.840
2023-05-10T02:44:18.363Z,2.600
2023-05-10T02:45:17.596Z,8.240
2023-05-10T02:46:17.915Z,4.000
2023-05-10T02:47:18.437Z,4.280
2023-05-10T02:48:17.815Z,3.560
2023-05-10T02:49:17.997Z,2.680
2023-05-10T02:50:18.515Z,4.840
2023-05-10T02:51:17.945Z,5.440
2023-05-10T02:52:18.250Z,6.680
2023-05-10T02:53:18.524Z,9.128
2023-05-10T02:54:17.849Z,6.915
2023-05-10T02:55:18.082Z,6.120
2023-05-10T02:56:18.287Z,6.840
2023-05-10T02:57:18.542Z,5.744
2023-05-10T02:58:17.730Z,5.858
2023-05-10T02:59:18.009Z,4.200
2023-05-10T03:00:18.731Z,5.840
2023-05-10T03:02:18.485Z,3.760
2023-05-10T03:03:17.966Z,4.120
2023-05-10T03:04:18.258Z,2.480
2023-05-10T03:07:18.408Z,3.680
2023-05-10T03:08:17.612Z,4.640
2023-05-10T03:09:17.819Z,5.600
2023-05-10T03:10:18.728Z,5.680
2023-05-10T03:13:18.020Z,7.851
2023-05-10T03:15:18.095Z,10.760
2023-05-10T03:16:18.354Z,5.360
2023-05-10T03:17:17.959Z,4.840
2023-05-10T03:18:18.458Z,7.633
2023-05-10T03:19:17.646Z,9.356
2023-05-10T03:20:18.216Z,6.560
2023-05-10T03:23:18.128Z,6.040
2023-05-10T03:24:18.569Z,8.600
2023-05-10T03:25:17.814Z,6.720
2023-05-10T03:26:18.061Z,6.800
2023-05-10T03:27:18.305Z,4.960
2023-05-10T03:28:18.542Z,6.964
2023-05-10T03:29:17.852Z,9.112
2023-05-10T03:30:18.331Z,5.760
2023-05-10T03:32:18.339Z,4.960
2023-05-10T03:33:17.685Z,6.080
2023-05-10T03:34:17.919Z,7.680
2023-05-10T03:35:18.201Z,5.960
2023-05-10T03:36:18.433Z,4.600
2023-05-10T03:37:17.618Z,7.240
2023-05-10T03:38:17.849Z,6.320
2023-05-10T03:39:18.393Z,5.240
2023-05-10T03:40:18.986Z,7.043
2023-05-10T03:41:18.380Z,5.532
2023-05-10T03:43:17.738Z,7.000
2023-05-10T03:44:18.011Z,4.760
2023-05-10T03:45:18.353Z,3.440
2023-05-10T03:46:18.571Z,5.823
2023-05-10T03:48:17.872Z,6.956
2023-05-10T03:49:18.072Z,5.760
2023-05-10T03:50:18.937Z,4.720
2023-05-10T03:52:17.616Z,3.680
2023-05-10T03:53:17.796Z,3.920
2023-05-10T03:55:18.304Z,5.640
2023-05-10T03:56:17.570Z,7.680
2023-05-10T03:57:17.776Z,4.520
2023-05-10T03:58:18.257Z,4.600
2023-05-10T03:59:18.503Z,4.643
2023-05-10T04:01:18.089Z,6.800
2023-05-10T04:02:18.470Z,9.880
2023-05-10T04:03:18.653Z,7.436
2023-05-10T04:04:17.958Z,5.085
2023-05-10T04:05:18.355Z,5.200
2023-05-10T04:06:17.668Z,5.040
2023-05-10T04:07:18.249Z,5.960
2023-05-10T04:08:18.406Z,2.800
2023-05-10T04:09:17.625Z,3.240
2023-05-10T04:10:18.342Z,3.560
2023-05-10T04:11:17.769Z,4.200
2023-05-10T04:12:18.124Z,5.360
2023-05-10T04:13:18.466Z,4.520
2023-05-10T04:14:18.132Z,4.080
2023-05-10T04:15:18.291Z,4.120
2023-05-10T04:16:18.597Z,3.384
2023-05-10T04:17:18.078Z,7.485
2023-05-10T04:21:18.212Z,5.440
2023-05-10T04:22:18.471Z,5.902
2023-05-10T04:23:17.706Z,4.434
2023-05-10T04:24:17.935Z,7.160
2023-05-10T04:25:18.130Z,6.680
2023-05-10T04:26:18.419Z,10.080
2023-05-10T04:27:17.709Z,6.880
2023-05-10T04:28:17.976Z,8.360
2023-05-10T04:29:18.274Z,7.120
2023-05-10T04:30:17.707Z,8.520
2023-05-10T04:31:18.303Z,10.240
2023-05-10T04:34:17.567Z,13.240
2023-05-10T04:35:17.900Z,12.040
2023-05-10T04:36:18.145Z,7.080
2023-05-10T04:37:18.374Z,5.960
2023-05-10T04:39:17.955Z,11.040
2023-05-10T04:40:18.542Z,10.760
2023-05-10T04:41:17.956Z,10.320
2023-05-10T04:42:18.177Z,8.320
2023-05-10T04:43:18.382Z,8.280
2023-05-10T04:44:17.569Z,11.200
2023-05-10T04:45:17.816Z,8.720
2023-05-10T04:46:18.160Z,10.080
2023-05-10T04:47:17.770Z,8.160
2023-05-10T04:48:18.176Z,7.400
2023-05-10T04:49:18.394Z,7.440
2023-05-10T04:50:17.836Z,9.960
2023-05-10T04:51:18.181Z,9.440
2023-05-10T04:52:18.368Z,10.800
2023-05-10T04:53:18.509Z,10.033
2023-05-10T04:55:17.887Z,6.760
2023-05-10T04:56:18.127Z,6.480
2023-05-10T04:57:18.327Z,9.840
2023-05-10T04:58:17.576Z,12.320
2023-05-10T04:59:17.842Z,10.320
2023-05-10T05:00:18.440Z,12.000
2023-05-10T05:01:17.806Z,9.120
2023-05-10T05:02:18.258Z,11.760
2023-05-10T05:03:17.924Z,13.440
2023-05-10T05:04:17.857Z,10.360
2023-05-10T05:05:18.494Z,10.426
2023-05-10T05:06:17.672Z,11.553
2023-05-10T05:07:17.895Z,10.400
2023-05-10T05:08:18.140Z,9.200
2023-05-10T05:09:18.399Z,9.120
2023-05-10T05:10:17.966Z,14.520
2023-05-10T05:11:18.374Z,9.920
2023-05-10T05:14:18.005Z,8.760
2023-05-10T05:15:18.207Z,10.720
2023-05-10T05:16:18.481Z,7.880
2023-05-10T05:17:18.011Z,7.840
2023-05-10T05:18:18.397Z,8.616
2023-05-10T05:21:18.105Z,6.920
2023-05-10T05:22:19.623Z,6.840
2023-05-10T05:23:17.922Z,8.400
2023-05-10T05:24:18.173Z,12.960
2023-05-10T05:25:18.419Z,8.680
2023-05-10T05:26:17.659Z,9.680
2023-05-10T05:27:17.939Z,7.160
2023-05-10T05:28:18.163Z,8.880
2023-05-10T05:29:18.324Z,9.000
2023-05-10T05:30:18.888Z,9.325
2023-05-10T05:31:18.223Z,11.105
2023-05-10T05:33:17.989Z,6.800
2023-05-10T05:34:18.211Z,6.080
2023-05-10T05:35:18.838Z,7.720
2023-05-10T05:36:18.137Z,6.480
2023-05-10T05:39:18.229Z,11.520
2023-05-10T05:40:17.590Z,7.880
2023-05-10T05:41:17.783Z,9.800
2023-05-10T05:42:18.103Z,10.920
2023-05-10T05:43:18.342Z,5.080
2023-05-10T05:44:17.602Z,6.200
2023-05-10T05:45:18.117Z,6.680
2023-05-10T05:46:17.896Z,7.680
2023-05-10T05:47:18.318Z,7.320
2023-05-10T05:48:17.914Z,7.800
2023-05-10T05:49:18.256Z,9.560
2023-05-10T05:50:18.518Z,8.970
2023-05-10T05:51:17.663Z,9.559
2023-05-10T05:52:17.838Z,11.800
2023-05-10T05:53:18.182Z,9.400
2023-05-10T05:54:17.759Z,6.800
2023-05-10T05:55:18.194Z,8.680
2023-05-10T05:58:18.245Z,14.840
2023-05-10T05:59:17.665Z,9.120
2023-05-10T06:00:18.190Z,9.200
2023-05-10T06:01:18.457Z,11.489
2023-05-10T06:02:17.795Z,12.325
2023-05-10T06:03:18.637Z,12.720
2023-05-10T06:04:17.792Z,9.880
2023-05-10T06:05:18.621Z,7.161
2023-05-10T06:08:18.418Z,10.520
2023-05-10T06:09:17.588Z,9.680
2023-05-10T06:10:17.794Z,10.760
2023-05-10T06:11:18.309Z,13.400
2023-05-10T06:12:17.595Z,10.680
2023-05-10T06:13:18.006Z,6.600
2023-05-10T06:15:18.123Z,9.560
2023-05-10T06:16:18.489Z,9.480
2023-05-10T06:17:17.854Z,8.120
2023-05-10T06:18:18.400Z,6.880
2023-05-10T06:19:17.576Z,10.280
2023-05-10T06:20:17.903Z,12.800
2023-05-10T06:21:18.159Z,10.200
2023-05-10T06:22:18.446Z,5.040
2023-05-10T06:23:17.709Z,9.320
2023-05-10T06:24:17.890Z,12.760
2023-05-10T06:25:18.841Z,9.040
2023-05-10T06:26:18.148Z,7.120
2023-05-10T06:27:18.417Z,6.570
2023-05-10T06:30:18.161Z,8.560
2023-05-10T06:31:18.305Z,15.120
2023-05-10T06:32:17.787Z,9.320
2023-05-10T06:33:18.182Z,10.040
2023-05-10T06:34:18.465Z,13.298
2023-05-10T06:35:17.996Z,13.505
2023-05-10T06:36:18.031Z,10.120
2023-05-10T06:37:18.155Z,9.320
2023-05-10T06:38:18.346Z,8.520
2023-05-10T06:39:17.601Z,4.120
2023-05-10T06:40:17.843Z,4.760
2023-05-10T06:41:18.067Z,7.160
2023-05-10T06:42:17.914Z,6.320
2023-05-10T06:43:18.081Z,10.120
2023-05-10T06:44:18.574Z,7.711
2023-05-10T06:45:17.984Z,10.414
2023-05-10T06:46:17.909Z,8.280
2023-05-10T06:47:18.371Z,5.480
2023-05-10T06:48:17.671Z,3.440
2023-05-10T06:49:18.047Z,5.600
2023-05-10T06:50:18.217Z,7.200
2023-05-10T06:51:18.511Z,11.803
2023-05-10T06:53:17.954Z,10.600
2023-05-10T06:54:18.170Z,5.880
2023-05-10T06:55:18.782Z,6.240
2023-05-10T06:56:18.235Z,8.320
2023-05-10T06:57:31.424Z,9.875
2023-05-10T06:58:18.166Z,14.359
2023-05-10T06:59:18.535Z,11.240
2023-05-10T07:00:18.455Z,7.520
2023-05-10T07:01:18.757Z,7.593
2023-05-10T07:02:18.991Z,10.240
2023-05-10T07:04:17.941Z,9.280
2023-05-10T07:05:17.765Z,8.240
2023-05-10T07:06:29.526Z,9.080
2023-05-10T07:07:18.243Z,8.360
2023-05-10T07:08:18.383Z,13.440
2023-05-10T07:09:17.561Z,12.480
2023-05-10T07:10:17.771Z,10.960
2023-05-10T07:11:18.135Z,9.120
2023-05-10T07:12:19.892Z,8.774
2023-05-10T07:13:18.419Z,7.810
2023-05-10T07:15:18.823Z,10.360
2023-05-10T07:16:18.242Z,8.360
2023-05-10T07:19:18.248Z,10.920
2023-05-10T07:20:18.499Z,8.144
2023-05-10T07:21:17.700Z,11.268
2023-05-10T07:24:18.051Z,9.720
2023-05-10T07:25:18.778Z,8.774
2023-05-10T07:26:18.119Z,7.363
2023-05-10T07:27:18.447Z,11.280
2023-05-10T07:28:17.747Z,8.240
2023-05-10T07:29:17.993Z,8.640
2023-05-10T07:30:18.334Z,12.920
2023-05-10T07:31:17.991Z,14.080
2023-05-10T07:32:18.526Z,11.720
2023-05-10T07:33:18.682Z,14.007
2023-05-10T07:34:18.129Z,13.912
2023-05-10T07:35:18.679Z,9.520
2023-05-10T07:36:18.007Z,13.000
2023-05-10T07:37:18.291Z,9.440
2023-05-10T07:38:17.584Z,13.040
2023-05-10T07:39:27.782Z,11.961
2023-05-10T07:41:17.670Z,7.322
2023-05-10T07:42:17.862Z,9.040
2023-05-10T07:43:18.133Z,8.040
2023-05-10T07:44:18.366Z,10.840
2023-05-10T07:45:17.800Z,14.280
2023-05-10T07:46:18.322Z,13.800
2023-05-10T07:47:18.274Z,10.000
2023-05-10T07:48:17.771Z,13.000
2023-05-10T07:49:17.918Z,10.440
2023-05-10T07:50:18.370Z,6.560
2023-05-10T07:51:17.622Z,8.160
2023-05-10T07:52:18.056Z,9.480
2023-05-10T07:53:18.403Z,6.400
2023-05-10T07:54:17.742Z,9.560
2023-05-10T07:55:18.565Z,11.120
2023-05-10T07:57:18.414Z,8.600
2023-05-10T07:58:17.696Z,7.080
2023-05-10T07:59:17.965Z,4.520
2023-05-10T08:00:18.282Z,8.800
2023-05-10T08:03:17.743Z,6.320
2023-05-10T08:04:17.891Z,8.160
2023-05-10T08:05:18.960Z,4.360
2023-05-10T08:06:18.243Z,8.080
2023-05-10T08:08:17.900Z,6.200
2023-05-10T08:09:18.169Z,4.280
2023-05-10T08:10:18.447Z,6.492
2023-05-10T08:11:18.288Z,5.980
2023-05-10T08:13:17.963Z,7.920
2023-05-10T08:14:18.207Z,8.360
2023-05-10T08:15:18.145Z,7.760
2023-05-10T08:18:18.626Z,8.600
2023-05-10T08:19:18.074Z,6.760
2023-05-10T08:20:18.321Z,11.400
2023-05-10T08:21:17.617Z,10.080
2023-05-10T08:22:17.809Z,5.640
2023-05-10T08:23:18.494Z,6.728
2023-05-10T08:24:17.754Z,8.990
2023-05-10T08:25:18.258Z,5.240
2023-05-10T08:26:17.636Z,2.520
2023-05-10T08:27:17.986Z,3.880
2023-05-10T08:28:18.298Z,6.840
2023-05-10T08:29:18.525Z,8.892
2023-05-10T08:30:17.978Z,6.875
2023-05-10T08:31:18.486Z,6.280
2023-05-10T08:32:18.149Z,8.200
2023-05-10T08:33:18.590Z,9.285
2023-05-10T08:34:18.176Z,9.478
2023-05-10T08:35:18.490Z,9.560
2023-05-10T08:36:18.166Z,6.480
2023-05-10T08:37:18.739Z,7.948
2023-05-10T08:38:18.123Z,6.468
2023-05-10T08:39:29.917Z,8.000
2023-05-10T08:40:17.784Z,9.640
2023-05-10T08:41:17.980Z,10.520
2023-05-10T08:42:18.571Z,9.440
2023-05-10T08:43:17.853Z,4.440
2023-05-10T08:44:18.242Z,9.600
2023-05-10T08:45:18.729Z,8.734
2023-05-10T08:46:18.352Z,11.959
2023-05-10T08:48:17.645Z,14.120
2023-05-10T08:49:17.857Z,14.440
2023-05-10T08:50:18.155Z,11.520
2023-05-10T08:51:17.592Z,6.040
2023-05-10T08:52:18.545Z,6.040
2023-05-10T08:54:18.123Z,8.480
2023-05-10T08:55:18.887Z,12.000
2023-05-10T08:56:18.157Z,12.840
2023-05-10T08:57:18.482Z,11.331
2023-05-10T08:58:17.739Z,10.414
2023-05-10T08:59:18.075Z,17.440
2023-05-10T09:00:18.472Z,12.944
2023-05-10T09:01:17.865Z,10.210
2023-05-10T09:03:18.159Z,11.120
2023-05-10T09:04:18.826Z,9.480
2023-05-10T09:05:18.007Z,6.560
2023-05-10T09:06:18.206Z,7.800
2023-05-10T09:08:17.914Z,7.720
2023-05-10T09:09:18.179Z,5.960
2023-05-10T09:10:18.435Z,5.640
2023-05-10T09:11:17.718Z,4.760
2023-05-10T09:12:18.059Z,8.560
2023-05-10T09:13:18.306Z,7.800
2023-05-10T09:14:18.565Z,7.711
2023-05-10T09:15:17.999Z,6.549
2023-05-10T09:16:21.597Z,4.643
2023-05-10T09:18:17.893Z,5.000
2023-05-10T09:19:18.016Z,6.480
2023-05-10T09:20:18.373Z,1.720
2023-05-10T09:21:17.634Z,2.800
2023-05-10T09:22:17.926Z,4.920
2023-05-10T09:23:18.173Z,4.520
2023-05-10T09:24:17.751Z,5.200
2023-05-10T09:25:18.326Z,6.200
2023-05-10T09:26:18.207Z,4.160
2023-05-10T09:27:18.542Z,4.485
2023-05-10T09:28:18.015Z,5.614
2023-05-10T09:29:21.354Z,6.160
2023-05-10T09:30:17.531Z,7.560
2023-05-10T09:31:17.984Z,10.240
2023-05-10T09:32:18.286Z,4.760
2023-05-10T09:33:17.622Z,1.360
2023-05-10T09:34:17.872Z,4.320
2023-05-10T09:35:18.782Z,4.960
2023-05-10T09:36:17.580Z,3.120
2023-05-10T09:37:17.840Z,1.880
2023-05-10T09:38:18.019Z,0.720
2023-05-10T09:39:18.289Z,2.600
2023-05-10T09:40:18.635Z,6.925
2023-05-10T09:41:17.929Z,5.858
2023-05-10T09:42:18.205Z,6.280
2023-05-10T09:43:18.378Z,7.520
2023-05-10T09:44:18.783Z,7.200
2023-05-10T09:46:17.652Z,3.760
2023-05-10T09:47:18.135Z,9.120
2023-05-10T09:48:17.614Z,8.320
2023-05-10T09:49:17.786Z,7.880
2023-05-10T09:50:18.182Z,7.480
2023-05-10T09:51:18.444Z,9.640
2023-05-10T09:52:17.779Z,12.760
2023-05-10T09:53:17.999Z,11.880
2023-05-10T09:54:18.249Z,10.200
2023-05-10T09:55:18.865Z,8.734
2023-05-10T09:56:18.339Z,10.942
2023-05-10T09:57:18.591Z,9.600
2023-05-10T10:00:18.580Z,6.320
2023-05-10T10:01:18.100Z,9.400
2023-05-10T10:04:18.203Z,5.760
2023-05-10T10:06:29.868Z,9.640
2023-05-10T10:08:17.808Z,9.722
2023-05-10T10:09:18.062Z,9.200
2023-05-10T10:10:18.324Z,9.880
2023-05-10T10:11:18.539Z,7.711
2023-05-10T10:12:17.782Z,13.708
2023-05-10T10:13:18.077Z,11.440
2023-05-10T10:14:18.309Z,6.840
2023-05-10T10:15:21.106Z,7.043
2023-05-10T10:16:18.533Z,12.200
2023-05-10T10:17:18.414Z,12.407
2023-05-10T10:18:17.836Z,10.280
2023-05-10T10:19:18.310Z,14.600
2023-05-10T10:20:18.903Z,9.954
2023-05-10T10:21:18.042Z,15.783
2023-05-10T10:22:18.357Z,16.360
2023-05-10T10:23:18.002Z,12.760
2023-05-10T10:24:18.374Z,13.960
2023-05-10T10:25:17.960Z,13.800
2023-05-10T10:26:18.506Z,12.787
2023-05-10T10:29:17.892Z,8.160
2023-05-10T10:30:18.115Z,6.480
2023-05-10T10:31:18.474Z,6.000
2023-05-10T10:32:18.543Z,9.403
2023-05-10T10:33:28.461Z,8.258
2023-05-10T10:35:18.862Z,8.320
2023-05-10T10:36:18.306Z,11.080
2023-05-10T10:37:18.583Z,11.921
2023-05-10T10:38:18.070Z,10.820
2023-05-10T10:39:18.399Z,12.360
2023-05-10T10:42:17.762Z,10.720
2023-05-10T10:43:18.230Z,7.040
2023-05-10T10:44:18.493Z,9.954
2023-05-10T10:45:17.932Z,15.864
2023-05-10T10:47:18.174Z,12.960
2023-05-10T10:48:17.739Z,7.880
2023-05-10T10:49:18.033Z,7.800
2023-05-10T10:50:18.253Z,10.560
2023-05-10T10:51:18.499Z,10.190
2023-05-10T10:54:17.781Z,11.200
2023-05-10T10:55:18.248Z,9.760
2023-05-10T10:56:17.671Z,6.680
2023-05-10T10:57:17.968Z,10.880
2023-05-10T10:58:18.343Z,11.760
2023-05-10T10:59:17.683Z,15.120
2023-05-10T11:00:17.981Z,10.160
2023-05-10T11:01:17.677Z,7.680
2023-05-10T11:02:17.794Z,10.000
2023-05-10T11:03:18.083Z,9.560
2023-05-10T11:04:18.478Z,7.400
2023-05-10T11:05:18.450Z,8.360
2023-05-10T11:08:17.807Z,11.553
2023-05-10T11:09:18.379Z,8.960
2023-05-10T11:10:17.684Z,12.320
2023-05-10T11:11:17.938Z,12.680
2023-05-10T11:12:18.190Z,6.240
2023-05-10T11:13:18.644Z,5.233
2023-05-10T11:14:17.887Z,7.485
2023-05-10T11:15:18.614Z,6.020
2023-05-10T11:17:18.301Z,11.920
2023-05-10T11:18:17.935Z,12.120
2023-05-10T11:19:18.390Z,9.120
2023-05-10T11:20:17.862Z,7.760
2023-05-10T11:22:17.938Z,9.320
2023-05-10T11:23:18.442Z,14.760
2023-05-10T11:24:17.837Z,11.600
2023-05-10T11:25:18.005Z,8.400
2023-05-10T11:26:18.322Z,9.640
2023-05-10T11:27:17.645Z,10.600
2023-05-10T11:28:17.846Z,9.840
2023-05-10T11:29:18.125Z,11.600
2023-05-10T11:30:18.801Z,15.040
2023-05-10T11:31:18.262Z,12.560
2023-05-10T11:32:18.514Z,6.334
2023-05-10T11:33:17.798Z,12.244
2023-05-10T11:34:18.282Z,12.520
2023-05-10T11:35:18.495Z,9.836
2023-05-10T11:36:17.742Z,11.553
2023-05-10T11:37:18.028Z,10.480
2023-05-10T11:38:18.351Z,9.760
2023-05-10T11:39:17.666Z,11.200
2023-05-10T11:40:18.331Z,12.000
2023-05-10T11:41:17.777Z,12.920
2023-05-10T11:42:18.041Z,10.400
2023-05-10T11:43:18.498Z,10.348
2023-05-10T11:44:17.845Z,10.088
2023-05-10T11:45:18.165Z,12.960
2023-05-10T11:46:18.703Z,12.600
2023-05-10T11:47:18.355Z,10.400
2023-05-10T11:49:17.785Z,12.200
2023-05-10T11:50:18.536Z,11.800
2023-05-10T11:51:18.172Z,9.520
2023-05-10T11:52:18.551Z,9.443
2023-05-10T11:53:17.717Z,8.054
2023-05-10T11:54:17.917Z,10.000
2023-05-10T11:55:18.351Z,10.240
2023-05-10T11:56:17.743Z,8.560
2023-05-10T11:57:17.954Z,7.520
2023-05-10T11:58:18.226Z,9.240
2023-05-10T11:59:18.542Z,12.826
2023-05-10T12:00:18.143Z,11.756
2023-05-10T12:02:18.055Z,6.520
2023-05-10T12:03:18.078Z,9.000
2023-05-10T12:04:18.579Z,11.800
2023-05-10T12:05:18.527Z,7.908
2023-05-10T12:06:17.769Z,9.153
2023-05-10T12:07:18.162Z,9.680
2023-05-10T12:08:18.509Z,6.689
2023-05-10T12:09:22.996Z,6.793
2023-05-10T12:10:18.118Z,10.560
2023-05-10T12:11:18.485Z,5.430
2023-05-10T12:12:17.965Z,3.580
2023-05-10T12:13:18.230Z,6.520
2023-05-10T12:14:18.486Z,7.436
2023-05-10T12:15:17.782Z,3.864
2023-05-10T12:16:18.187Z,7.600
2023-05-10T12:19:18.140Z,5.080
2023-05-10T12:20:18.956Z,6.520
2023-05-10T12:21:18.375Z,9.480
2023-05-10T12:24:18.383Z,7.000
2023-05-10T12:25:17.984Z,3.600
2023-05-10T12:26:18.246Z,4.960
2023-05-10T12:29:18.179Z,5.320
2023-05-10T12:30:18.787Z,4.210
2023-05-10T12:31:18.364Z,5.573
2023-05-10T12:34:17.927Z,5.288
2023-05-10T12:35:18.154Z,4.240
2023-05-10T12:36:18.486Z,4.052
2023-05-10T12:37:17.695Z,2.888
2023-05-10T12:38:18.050Z,5.880
2023-05-10T12:39:18.455Z,4.367
2023-05-10T12:40:18.018Z,7.281
2023-05-10T12:41:18.602Z,2.479
2023-05-10T12:43:18.254Z,5.560
2023-05-10T12:44:17.653Z,5.520
2023-05-10T12:45:18.005Z,4.240
2023-05-10T12:46:18.423Z,3.760
2023-05-10T12:47:18.426Z,5.080
2023-05-10T12:48:17.791Z,5.360
2023-05-10T12:49:18.110Z,5.000
2023-05-10T12:50:18.841Z,5.200
2023-05-10T12:52:18.553Z,3.423
2023-05-10T12:53:17.912Z,6.590
2023-05-10T12:54:18.095Z,5.840
2023-05-10T12:55:18.288Z,4.320
2023-05-10T12:56:18.538Z,3.541
2023-05-10T12:57:17.824Z,3.295
2023-05-10T12:58:34.448Z,4.760
2023-05-10T12:59:18.386Z,7.160
2023-05-10T13:00:18.738Z,7.751
2023-05-10T13:01:18.133Z,7.119
2023-05-10T13:02:18.117Z,10.160
2023-05-10T13:03:18.441Z,13.520
2023-05-10T13:04:17.731Z,11.520
2023-05-10T13:05:18.368Z,11.480
2023-05-10T13:06:17.615Z,9.840
2023-05-10T13:07:18.076Z,7.560
2023-05-10T13:08:18.321Z,10.800
2023-05-10T13:09:17.612Z,12.080
2023-05-10T13:10:18.103Z,12.640
2023-05-10T13:12:17.934Z,14.320
2023-05-10T13:13:18.256Z,13.720
2023-05-10T13:14:17.720Z,10.120
2023-05-10T13:15:17.907Z,10.080
2023-05-10T13:16:18.256Z,10.560
2023-05-10T13:17:18.181Z,7.040
2023-05-10T13:18:18.254Z,6.800
2023-05-10T13:19:18.433Z,6.440
2023-05-10T13:20:17.953Z,5.280
2023-05-10T13:21:18.344Z,3.800
2023-05-10T13:22:25.619Z,5.240
2023-05-10T13:23:18.434Z,6.240
2023-05-10T13:24:17.606Z,4.760
2023-05-10T13:25:17.826Z,5.440
2023-05-10T13:26:18.033Z,3.440
2023-05-10T13:27:18.448Z,4.520
2023-05-10T13:29:17.888Z,6.080
2023-05-10T13:30:18.539Z,7.400
2023-05-10T13:31:17.961Z,4.920
2023-05-10T13:32:18.530Z,3.659
2023-05-10T13:34:18.339Z,4.280
2023-05-10T13:35:17.636Z,3.600
2023-05-10T13:36:17.874Z,3.640
2023-05-10T13:37:18.160Z,4.840
2023-05-10T13:38:19.902Z,2.960
2023-05-10T13:39:18.251Z,6.080
2023-05-10T13:40:18.851Z,4.957
2023-05-10T13:41:18.256Z,5.776
2023-05-10T13:42:18.506Z,5.980
2023-05-10T13:45:18.832Z,3.280
2023-05-10T13:47:18.008Z,4.520
2023-05-10T13:48:18.622Z,5.430
2023-05-10T13:49:18.012Z,4.231
2023-05-10T13:50:18.266Z,3.720
2023-05-10T13:51:18.512Z,1.416
2023-05-10T13:52:17.681Z,3.132
2023-05-10T13:53:17.929Z,3.280
2023-05-10T13:54:18.371Z,4.480
2023-05-10T13:55:17.873Z,2.240
2023-05-10T13:56:18.388Z,3.680
2023-05-10T13:59:18.275Z,2.160
2023-05-10T14:00:18.476Z,1.967
2023-05-10T14:01:18.364Z,2.969
2023-05-10T14:03:17.741Z,3.240
2023-05-10T14:04:17.837Z,2.560
2023-05-10T14:05:19.917Z,4.000
2023-05-10T14:06:17.875Z,5.000
2023-05-10T14:07:18.113Z,5.080
2023-05-10T14:08:18.395Z,3.840
2023-05-10T14:09:17.745Z,4.960
2023-05-10T14:10:18.108Z,5.760
2023-05-10T14:11:18.589Z,6.452
2023-05-10T14:12:17.646Z,6.508
2023-05-10T14:13:18.020Z,6.400
2023-05-10T14:14:18.403Z,5.960
2023-05-10T14:15:18.109Z,7.200
2023-05-10T14:17:18.341Z,2.960
2023-05-10T14:18:17.905Z,2.120
2023-05-10T14:20:17.996Z,6.320
2023-05-10T14:21:18.303Z,9.080
2023-05-10T14:22:17.550Z,8.200
2023-05-10T14:23:17.942Z,6.720
2023-05-10T14:24:18.463Z,9.403
2023-05-10T14:25:19.852Z,6.915
2023-05-10T14:26:18.260Z,6.440
2023-05-10T14:27:18.499Z,4.407
2023-05-10T14:28:17.740Z,4.719
2023-05-10T14:29:18.371Z,2.320
2023-05-10T14:30:18.532Z,2.793
2023-05-10T14:32:18.464Z,10.120
2023-05-10T14:33:17.868Z,7.640
2023-05-10T14:34:18.120Z,11.400
2023-05-10T14:35:19.683Z,10.000
2023-05-10T14:37:18.546Z,8.616
2023-05-10T14:38:17.797Z,5.207
2023-05-10T14:39:18.151Z,6.240
2023-05-10T14:40:18.412Z,6.960
2023-05-10T14:41:17.702Z,9.640
2023-05-10T14:42:17.953Z,6.120
2023-05-10T14:43:18.239Z,6.320
2023-05-10T14:44:18.438Z,6.360
2023-05-10T14:45:17.985Z,5.760
2023-05-10T14:46:18.437Z,4.400
2023-05-10T14:47:18.341Z,5.920
2023-05-10T14:49:17.949Z,5.000